Time;durP1;ratioP1;P1;durP2;ratioP2;P2;SDS_P1;SDS_P2;PMS_P1;PMS_P2;Temp;Humidity;BMP_temperature;BMP_pressure;BME280_temperature;BME280_humidity;BME280_pressure;Samples;Min_cycle;Max_cycle;Signal;HPM_P1;HPM_P2
2022/03/17 00:01:09;;;;;;;22.50;10.77;;;;;;;;;;5075265;28;20494;-67
2022/03/17 00:03:37;;;;;;;18.70;9.57;;;;;;;;;;5075841;28;20037;-68
2022/03/17 00:06:12;;;;;;;20.25;8.70;;;;;;;;;;5075071;28;20128;-68
2022/03/17 00:08:43;;;;;;;18.40;8.60;;;;;;;;;;5074341;28;20076;-68
2022/03/17 00:11:11;;;;;;;20.02;9.00;;;;;;;;;;5075230;28;20138;-68
2022/03/17 00:13:39;;;;;;;16.15;7.97;;;;;;;;;;5074924;28;20037;-68
2022/03/17 00:16:09;;;;;;;19.92;9.52;;;;;;;;;;5073412;28;20033;-67
2022/03/17 00:18:36;;;;;;;13.27;6.10;;;;;;;;;;5075147;28;20048;-67
2022/03/17 00:21:10;;;;;;;13.52;7.28;;;;;;;;;;5074763;28;20091;-67
2022/03/17 00:23:46;;;;;;;15.15;7.35;;;;;;;;;;5074847;28;20553;-67
2022/03/17 00:26:13;;;;;;;15.63;7.32;;;;;;;;;;5074591;28;20059;-67
2022/03/17 00:28:42;;;;;;;12.30;6.43;;;;;;;;;;5074585;28;20500;-67
2022/03/17 00:31:10;;;;;;;14.75;6.80;;;;;;;;;;5074392;28;20041;-68
2022/03/17 00:33:37;;;;;;;16.77;7.07;;;;;;;;;;5074089;28;20033;-68
2022/03/17 00:36:09;;;;;;;17.92;7.30;;;;;;;;;;5075004;28;20040;-67
2022/03/17 00:38:43;;;;;;;17.65;6.88;;;;;;;;;;5074796;28;20048;-67
2022/03/17 00:41:11;;;;;;;16.80;7.13;;;;;;;;;;5073942;28;20482;-67
2022/03/17 00:43:39;;;;;;;16.33;6.40;;;;;;;;;;5074830;28;20058;-67
2022/03/17 00:46:09;;;;;;;17.27;6.20;;;;;;;;;;5074448;28;20094;-67
2022/03/17 00:48:37;;;;;;;14.00;6.45;;;;;;;;;;5074161;28;20041;-68
2022/03/17 00:51:05;;;;;;;12.00;6.43;;;;;;;;;;5073883;28;20048;-67
2022/03/17 00:53:32;;;;;;;16.42;7.03;;;;;;;;;;5072426;28;20049;-68
2022/03/17 00:56:01;;;;;;;16.02;6.50;;;;;;;;;;5074055;28;20405;-67
2022/03/17 00:58:30;;;;;;;14.18;5.82;;;;;;;;;;5073568;28;20045;-67
2022/03/17 01:00:57;;;;;;;12.43;5.82;;;;;;;;;;5074097;28;20482;-67
2022/03/17 01:03:26;;;;;;;12.20;5.97;;;;;;;;;;5073463;28;20123;-67
2022/03/17 01:05:54;;;;;;;11.68;5.32;;;;;;;;;;5073721;28;20060;-68
2022/03/17 01:08:21;;;;;;;15.38;5.78;;;;;;;;;;5073357;28;20037;-69
2022/03/17 01:10:52;;;;;;;12.35;6.03;;;;;;;;;;5073111;28;20036;-68
2022/03/17 01:13:21;;;;;;;14.18;5.80;;;;;;;;;;5074092;28;20036;-68
2022/03/17 01:15:49;;;;;;;11.57;5.47;;;;;;;;;;5073747;28;20098;-68
2022/03/17 01:18:17;;;;;;;10.68;5.25;;;;;;;;;;5073679;28;20102;-68
2022/03/17 01:20:53;;;;;;;11.07;5.30;;;;;;;;;;5073845;28;20422;-68
2022/03/17 01:26:39;;;;;;;11.93;4.90;;;;;;;;;;5073761;28;20048;-68
2022/03/17 01:29:06;;;;;;;12.07;5.50;;;;;;;;;;5072939;28;20032;-68
2022/03/17 01:31:50;;;;;;;12.60;6.00;;;;;;;;;;5073757;28;20408;-68
2022/03/17 01:34:18;;;;;;;9.75;5.57;;;;;;;;;;5073623;28;20076;-68
2022/03/17 01:36:47;;;;;;;12.15;5.50;;;;;;;;;;5072392;28;20036;-68
2022/03/17 01:39:15;;;;;;;9.88;4.97;;;;;;;;;;5071130;28;20449;-68
2022/03/17 01:41:45;;;;;;;10.60;5.20;;;;;;;;;;5073868;28;20455;-68
2022/03/17 01:44:13;;;;;;;10.20;4.90;;;;;;;;;;5073450;28;20047;-68
2022/03/17 01:49:30;;;;;;;12.73;5.25;;;;;;;;;;5073364;28;20557;-67
2022/03/17 01:51:58;;;;;;;8.55;4.78;;;;;;;;;;5073298;28;20115;-68
2022/03/17 01:54:25;;;;;;;8.38;4.63;;;;;;;;;;5071833;28;20052;-68
2022/03/17 01:57:06;;;;;;;9.05;4.78;;;;;;;;;;5072710;28;20117;-68
2022/03/17 01:59:38;;;;;;;9.98;4.35;;;;;;;;;;5073189;28;20036;-68
2022/03/17 02:02:07;;;;;;;9.50;4.80;;;;;;;;;;5072708;28;20139;-68
2022/03/17 02:04:35;;;;;;;10.27;4.72;;;;;;;;;;5072979;28;20041;-68
2022/03/17 02:07:11;;;;;;;9.05;4.70;;;;;;;;;;5072266;28;20037;-68
2022/03/17 02:09:39;;;;;;;9.75;4.85;;;;;;;;;;5073290;28;20543;-68
2022/03/17 02:15:00;;;;;;;10.00;4.65;;;;;;;;;;5073090;28;20048;-68
2022/03/17 02:17:32;;;;;;;8.05;4.28;;;;;;;;;;5071919;28;20399;-68
2022/03/17 02:20:02;;;;;;;12.60;4.85;;;;;;;;;;5073216;28;20076;-68
2022/03/17 02:22:32;;;;;;;10.48;4.53;;;;;;;;;;5073133;28;20397;-69
2022/03/17 02:27:49;;;;;;;7.60;3.88;;;;;;;;;;5072628;28;20493;-68
2022/03/17 02:30:21;;;;;;;9.75;4.40;;;;;;;;;;5072380;28;20483;-68
2022/03/17 02:32:50;;;;;;;8.45;4.30;;;;;;;;;;5071855;28;20119;-68
2022/03/17 02:35:22;;;;;;;7.45;3.83;;;;;;;;;;5073133;28;20047;-68
2022/03/17 02:37:55;;;;;;;9.80;4.70;;;;;;;;;;5073228;28;20048;-68
2022/03/17 02:40:24;;;;;;;8.77;4.20;;;;;;;;;;5072985;28;20073;-69
2022/03/17 02:42:52;;;;;;;10.77;3.88;;;;;;;;;;5072785;28;20048;-68
2022/03/17 02:45:20;;;;;;;7.38;3.92;;;;;;;;;;5072708;28;20048;-68
2022/03/17 02:47:48;;;;;;;12.60;4.10;;;;;;;;;;5072980;28;20048;-68
2022/03/17 02:50:16;;;;;;;5.72;3.33;;;;;;;;;;5073001;28;20039;-69
2022/03/17 02:52:43;;;;;;;6.88;3.90;;;;;;;;;;5070867;28;20064;-69
2022/03/17 02:55:14;;;;;;;7.97;4.18;;;;;;;;;;5072307;28;20053;-68
2022/03/17 02:57:46;;;;;;;7.03;3.70;;;;;;;;;;5073263;28;20402;-68
2022/03/17 03:00:42;;;;;;;6.05;3.53;;;;;;;;;;5072603;28;20075;-68
2022/03/17 03:03:12;;;;;;;10.50;3.92;;;;;;;;;;5072670;28;20072;-68
2022/03/17 03:06:17;;;;;;;9.73;3.95;;;;;;;;;;5072521;28;20036;-69
2022/03/17 03:09:10;;;;;;;9.48;3.92;;;;;;;;;;5072845;28;20060;-69
2022/03/17 03:12:03;;;;;;;7.28;3.42;;;;;;;;;;5072318;28;20115;-69
2022/03/17 03:14:31;;;;;;;6.88;3.60;;;;;;;;;;5072004;28;20037;-68
2022/03/17 03:20:09;;;;;;;7.75;3.75;;;;;;;;;;5072620;28;20041;-69
2022/03/17 03:26:52;;;;;;;7.57;3.80;;;;;;;;;;5075240;28;20505;-69
2022/03/17 03:33:22;;;;;;;6.97;3.72;;;;;;;;;;5075219;28;20476;-68
2022/03/17 03:38:52;;;;;;;6.05;3.15;;;;;;;;;;5075563;28;20044;-68
2022/03/17 03:41:24;;;;;;;7.38;3.53;;;;;;;;;;5074438;28;20045;-68
2022/03/17 03:44:05;;;;;;;6.20;3.33;;;;;;;;;;5076174;28;20052;-68
2022/03/17 03:46:32;;;;;;;8.00;3.90;;;;;;;;;;5075144;28;20467;-68
2022/03/17 03:49:01;;;;;;;8.60;3.58;;;;;;;;;;5075000;28;20045;-68
2022/03/17 03:51:28;;;;;;;9.88;3.63;;;;;;;;;;5074565;28;20131;-68
2022/03/17 03:54:15;;;;;;;8.60;3.83;;;;;;;;;;5075251;28;20522;-68
2022/03/17 03:56:52;;;;;;;6.72;3.70;;;;;;;;;;5075335;28;20040;-68
2022/03/17 03:59:23;;;;;;;8.02;4.50;;;;;;;;;;5075527;28;20115;-68
2022/03/17 04:02:10;;;;;;;8.93;3.53;;;;;;;;;;5075010;28;20120;-69
2022/03/17 04:04:40;;;;;;;9.88;3.80;;;;;;;;;;5074156;28;20041;-68
2022/03/17 04:07:12;;;;;;;6.10;3.70;;;;;;;;;;5074338;28;20093;-68
2022/03/17 04:09:41;;;;;;;8.80;3.55;;;;;;;;;;5075098;28;20039;-68
2022/03/17 04:12:13;;;;;;;7.32;3.67;;;;;;;;;;5075252;28;20047;-68
2022/03/17 04:14:41;;;;;;;7.88;3.88;;;;;;;;;;5073875;28;20040;-70
2022/03/17 04:17:39;;;;;;;9.07;3.53;;;;;;;;;;5074565;28;20106;-70
2022/03/17 04:20:33;;;;;;;9.35;3.35;;;;;;;;;;5075316;28;20051;-70
2022/03/17 04:23:25;;;;;;;7.32;3.55;;;;;;;;;;5075215;28;20458;-70
2022/03/17 04:25:56;;;;;;;10.32;3.85;;;;;;;;;;5075138;28;20041;-70
2022/03/17 04:28:30;;;;;;;6.32;3.75;;;;;;;;;;5075161;28;20055;-69
2022/03/17 04:30:58;;;;;;;6.43;3.47;;;;;;;;;;5071785;28;20098;-69
2022/03/17 04:33:25;;;;;;;7.40;4.07;;;;;;;;;;5073699;28;20064;-70
2022/03/17 04:35:55;;;;;;;10.05;3.67;;;;;;;;;;5074641;28;20037;-70
2022/03/17 04:38:23;;;;;;;8.02;3.17;;;;;;;;;;5074417;28;20044;-70
2022/03/17 04:40:51;;;;;;;8.75;3.67;;;;;;;;;;5074794;28;20043;-70
2022/03/17 04:43:20;;;;;;;6.82;3.58;;;;;;;;;;5074370;28;20083;-70
2022/03/17 04:45:49;;;;;;;8.52;3.28;;;;;;;;;;5074829;28;20052;-70
2022/03/17 04:48:18;;;;;;;5.35;3.33;;;;;;;;;;5074808;28;20097;-69
2022/03/17 04:50:46;;;;;;;8.90;3.67;;;;;;;;;;5073823;28;20041;-69
2022/03/17 04:53:30;;;;;;;5.07;2.80;;;;;;;;;;5074208;28;20056;-70
2022/03/17 04:55:58;;;;;;;6.38;3.25;;;;;;;;;;5074401;28;20075;-69
2022/03/17 04:58:27;;;;;;;8.02;3.67;;;;;;;;;;5073506;28;20095;-69
2022/03/17 05:00:55;;;;;;;7.38;3.58;;;;;;;;;;5074360;28;20055;-69
2022/03/17 05:03:24;;;;;;;5.55;3.42;;;;;;;;;;5058152;28;20103;-69
2022/03/17 05:05:52;;;;;;;6.85;3.75;;;;;;;;;;5054136;28;20098;-69
2022/03/17 05:08:26;;;;;;;8.52;4.03;;;;;;;;;;5054300;28;20037;-68
2022/03/17 05:10:54;;;;;;;7.10;3.08;;;;;;;;;;5053816;28;20076;-70
2022/03/17 05:13:23;;;;;;;6.60;3.58;;;;;;;;;;5053102;28;20044;-69
2022/03/17 05:15:51;;;;;;;7.95;3.65;;;;;;;;;;5054398;28;20365;-69
2022/03/17 05:18:21;;;;;;;7.65;3.80;;;;;;;;;;5054071;28;20047;-69
2022/03/17 05:20:53;;;;;;;5.75;3.08;;;;;;;;;;5054258;28;20456;-69
2022/03/17 05:23:24;;;;;;;11.00;3.83;;;;;;;;;;5053817;28;20128;-69
2022/03/17 05:25:58;;;;;;;7.95;3.42;;;;;;;;;;5053785;28;20048;-69
2022/03/17 05:28:27;;;;;;;9.30;5.13;;;;;;;;;;5052434;28;20124;-69
2022/03/17 05:30:55;;;;;;;10.20;4.07;;;;;;;;;;5051908;28;20048;-70
2022/03/17 05:33:23;;;;;;;5.38;3.17;;;;;;;;;;5053414;28;20067;-70
2022/03/17 05:35:52;;;;;;;9.85;4.80;;;;;;;;;;5053606;28;20041;-69
2022/03/17 05:38:23;;;;;;;8.57;4.32;;;;;;;;;;5054004;28;20053;-69
2022/03/17 05:40:53;;;;;;;5.53;2.97;;;;;;;;;;5053212;28;20384;-70
2022/03/17 05:43:23;;;;;;;5.40;3.50;;;;;;;;;;5053529;28;20041;-70
2022/03/17 05:45:53;;;;;;;6.03;3.10;;;;;;;;;;5053668;28;20098;-69
2022/03/17 05:48:26;;;;;;;5.82;3.10;;;;;;;;;;5053653;28;20072;-70
2022/03/17 05:50:54;;;;;;;7.57;3.17;;;;;;;;;;5052740;28;20045;-69
2022/03/17 05:53:37;;;;;;;7.30;3.67;;;;;;;;;;5117254;23;20049;-70
2022/03/17 05:59:25;;;;;;;7.55;3.65;;;;;;;;;;5028896;28;20065;-71
2022/03/17 06:01:53;;;;;;;12.10;4.82;;;;;;;;;;5045752;28;20532;-71
2022/03/17 06:04:41;;;;;;;8.68;4.50;;;;;;;;;;5053469;28;20037;-71
2022/03/17 06:07:10;;;;;;;7.80;3.55;;;;;;;;;;5049003;28;20041;-71
2022/03/17 06:09:41;;;;;;;7.32;3.55;;;;;;;;;;5033606;28;20053;-72
2022/03/17 06:12:09;;;;;;;6.68;3.45;;;;;;;;;;5032837;28;20037;-71
2022/03/17 06:14:39;;;;;;;8.75;3.83;;;;;;;;;;5033047;28;20052;-71
2022/03/17 06:17:06;;;;;;;6.82;2.90;;;;;;;;;;5033038;28;20045;-71
2022/03/17 06:19:34;;;;;;;13.48;4.43;;;;;;;;;;5032843;28;20233;-71
2022/03/17 06:22:03;;;;;;;5.68;3.65;;;;;;;;;;5032684;28;20140;-70
2022/03/17 06:24:32;;;;;;;8.45;3.97;;;;;;;;;;5033116;28;20045;-70
2022/03/17 06:27:00;;;;;;;5.85;3.67;;;;;;;;;;5032996;28;20099;-70
2022/03/17 06:29:31;;;;;;;9.32;3.50;;;;;;;;;;5015275;28;20042;-70
2022/03/17 06:31:59;;;;;;;6.43;3.55;;;;;;;;;;5032970;28;20038;-70
2022/03/17 06:34:31;;;;;;;5.32;3.53;;;;;;;;;;5032921;28;20057;-70
2022/03/17 06:37:15;;;;;;;8.50;3.55;;;;;;;;;;5032817;28;20100;-72
2022/03/17 06:39:43;;;;;;;11.10;3.70;;;;;;;;;;5032986;28;20084;-71
2022/03/17 06:42:10;;;;;;;6.97;3.47;;;;;;;;;;5032168;28;20038;-71
2022/03/17 06:44:41;;;;;;;8.20;3.47;;;;;;;;;;5033034;28;20095;-71
2022/03/17 06:47:08;;;;;;;6.65;3.60;;;;;;;;;;5032714;28;20112;-71
2022/03/17 06:52:42;;;;;;;7.28;3.08;;;;;;;;;;5032942;28;20096;-72
2022/03/17 06:55:10;;;;;;;7.28;3.42;;;;;;;;;;5055057;28;20057;-71
2022/03/17 06:57:41;;;;;;;7.40;3.25;;;;;;;;;;5075158;28;20119;-70
2022/03/17 07:00:13;;;;;;;6.40;3.63;;;;;;;;;;5076737;28;20075;-71
2022/03/17 07:02:42;;;;;;;6.55;2.95;;;;;;;;;;5076412;28;20534;-71
2022/03/17 07:05:11;;;;;;;9.50;3.60;;;;;;;;;;5076947;28;20047;-70
2022/03/17 07:07:42;;;;;;;6.68;3.22;;;;;;;;;;5076423;28;20060;-71
2022/03/17 07:10:15;;;;;;;8.10;3.63;;;;;;;;;;5076353;28;20093;-71
2022/03/17 07:12:47;;;;;;;7.70;3.85;;;;;;;;;;5077011;28;20414;-71
2022/03/17 07:15:15;;;;;;;7.75;3.95;;;;;;;;;;5076599;28;20064;-71
2022/03/17 07:17:44;;;;;;;6.28;3.17;;;;;;;;;;5075843;28;20491;-71
2022/03/17 07:20:15;;;;;;;6.40;3.72;;;;;;;;;;5076333;28;20071;-71
2022/03/17 07:22:49;;;;;;;8.00;3.70;;;;;;;;;;5076541;28;20097;-71
2022/03/17 07:25:21;;;;;;;7.25;3.33;;;;;;;;;;5075919;28;20045;-71
2022/03/17 07:27:52;;;;;;;8.88;3.85;;;;;;;;;;5076061;28;20040;-71
2022/03/17 07:30:20;;;;;;;5.47;3.10;;;;;;;;;;5076105;28;20115;-72
2022/03/17 07:32:59;;;;;;;9.30;3.67;;;;;;;;;;5076065;28;20037;-71
2022/03/17 07:35:30;;;;;;;9.95;4.63;;;;;;;;;;5076023;28;20379;-71
2022/03/17 07:38:02;;;;;;;10.75;5.18;;;;;;;;;;5076126;28;20094;-71
2022/03/17 07:40:33;;;;;;;7.55;4.32;;;;;;;;;;5075596;28;20125;-71
2022/03/17 07:43:08;;;;;;;8.75;4.20;;;;;;;;;;5076185;28;20048;-71
2022/03/17 07:46:01;;;;;;;9.65;3.25;;;;;;;;;;5057432;28;20048;-72
2022/03/17 07:48:50;;;;;;;8.07;4.03;;;;;;;;;;5076066;28;20127;-71
2022/03/17 07:51:25;;;;;;;11.35;3.53;;;;;;;;;;5057465;28;20139;-72
2022/03/17 07:54:18;;;;;;;7.57;3.63;;;;;;;;;;5072820;28;20108;-70
2022/03/17 07:57:11;;;;;;;5.80;2.92;;;;;;;;;;5030568;28;20124;-72
2022/03/17 07:59:39;;;;;;;9.90;3.45;;;;;;;;;;5035536;28;20033;-71
2022/03/17 08:02:07;;;;;;;6.70;3.60;;;;;;;;;;5055024;28;20047;-72
2022/03/17 08:04:37;;;;;;;10.43;4.00;;;;;;;;;;5055154;28;20091;-72
2022/03/17 08:07:08;;;;;;;7.95;3.28;;;;;;;;;;5055342;28;20056;-72
2022/03/17 08:09:43;;;;;;;8.80;3.80;;;;;;;;;;5055296;28;20064;-72
2022/03/17 08:12:11;;;;;;;9.35;3.67;;;;;;;;;;5055743;28;20048;-72
2022/03/17 08:14:38;;;;;;;6.80;3.20;;;;;;;;;;5055248;28;20036;-72
2022/03/17 08:17:06;;;;;;;10.23;4.28;;;;;;;;;;5054593;28;20091;-72
2022/03/17 08:19:50;;;;;;;8.38;3.10;;;;;;;;;;5055225;28;20203;-72
2022/03/17 08:22:46;;;;;;;7.82;3.92;;;;;;;;;;5054167;28;20048;-73
2022/03/17 08:25:14;;;;;;;4.40;2.50;;;;;;;;;;5055190;28;20051;-72
2022/03/17 08:27:52;;;;;;;12.00;4.68;;;;;;;;;;5054817;28;20041;-72
2022/03/17 08:30:20;;;;;;;7.25;4.05;;;;;;;;;;5054802;28;20080;-72
2022/03/17 08:32:56;;;;;;;8.52;4.00;;;;;;;;;;5055270;28;20044;-73
2022/03/17 08:35:50;;;;;;;15.35;8.15;;;;;;;;;;5054771;28;20041;-72
2022/03/17 08:38:43;;;;;;;11.85;5.07;;;;;;;;;;5054850;28;20095;-73
2022/03/17 08:41:11;;;;;;;7.30;4.40;;;;;;;;;;5037078;28;20060;-72
2022/03/17 08:43:42;;;;;;;7.45;4.15;;;;;;;;;;5055095;28;20475;-72
2022/03/17 08:49:18;;;;;;;4.13;2.30;;;;;;;;;;5054957;28;20043;-72
2022/03/17 08:51:56;;;;;;;4.43;2.40;;;;;;;;;;5054649;28;20095;-73
2022/03/17 08:54:25;;;;;;;6.15;3.13;;;;;;;;;;5057081;28;20459;-73
2022/03/17 08:57:01;;;;;;;6.53;3.42;;;;;;;;;;5074386;28;20032;-73
2022/03/17 08:59:36;;;;;;;8.20;3.45;;;;;;;;;;5074333;28;20120;-72
2022/03/17 09:02:10;;;;;;;9.52;4.80;;;;;;;;;;5074217;28;20040;-73
2022/03/17 09:04:39;;;;;;;7.80;3.63;;;;;;;;;;5074336;28;20549;-73
2022/03/17 09:07:09;;;;;;;6.55;2.85;;;;;;;;;;5074387;28;20453;-73
2022/03/17 09:09:40;;;;;;;8.07;3.97;;;;;;;;;;5074380;28;20036;-73
2022/03/17 09:12:10;;;;;;;18.13;9.20;;;;;;;;;;5073967;28;20127;-73
2022/03/17 09:14:44;;;;;;;13.77;6.53;;;;;;;;;;5074028;28;20501;-72
2022/03/17 09:17:12;;;;;;;7.78;3.85;;;;;;;;;;5060106;28;20455;-72
2022/03/17 09:19:40;;;;;;;6.15;3.30;;;;;;;;;;5053223;28;20095;-72
2022/03/17 09:22:11;;;;;;;7.05;2.90;;;;;;;;;;5053992;28;20548;-72
2022/03/17 09:24:41;;;;;;;6.72;3.35;;;;;;;;;;5053967;28;20120;-73
2022/03/17 09:27:11;;;;;;;7.15;4.07;;;;;;;;;;5052459;28;20036;-72
2022/03/17 09:29:43;;;;;;;8.55;4.60;;;;;;;;;;5054776;28;20525;-73
2022/03/17 09:32:10;;;;;;;6.00;3.55;;;;;;;;;;5053054;28;20057;-72
2022/03/17 09:35:18;;;;;;;5.40;2.88;;;;;;;;;;5053887;28;20044;-72
2022/03/17 09:37:46;;;;;;;6.68;2.80;;;;;;;;;;5053930;28;20087;-72
2022/03/17 09:40:15;;;;;;;4.53;2.60;;;;;;;;;;5053286;28;20041;-72
2022/03/17 09:42:47;;;;;;;6.82;2.75;;;;;;;;;;5053262;28;20052;-72
2022/03/17 09:45:15;;;;;;;6.70;3.83;;;;;;;;;;5053810;28;20041;-72
2022/03/17 09:47:48;;;;;;;7.55;3.28;;;;;;;;;;5053151;28;20048;-72
2022/03/17 09:50:27;;;;;;;4.97;3.00;;;;;;;;;;5053670;28;20037;-72
2022/03/17 09:52:55;;;;;;;6.30;3.17;;;;;;;;;;5053439;28;20041;-72
2022/03/17 09:55:22;;;;;;;5.85;3.25;;;;;;;;;;5053279;28;20411;-72
2022/03/17 09:57:55;;;;;;;6.80;3.97;;;;;;;;;;5052915;28;20144;-72
2022/03/17 10:00:23;;;;;;;6.88;3.63;;;;;;;;;;5053689;28;20491;-72
2022/03/17 10:02:53;;;;;;;5.53;2.50;;;;;;;;;;5053121;28;20399;-71
2022/03/17 10:05:25;;;;;;;4.18;2.40;;;;;;;;;;5045538;28;20043;-72
2022/03/17 10:07:53;;;;;;;5.10;2.53;;;;;;;;;;5053281;28;20094;-72
2022/03/17 10:10:35;;;;;;;4.32;2.63;;;;;;;;;;5053065;28;20040;-72
2022/03/17 10:13:10;;;;;;;5.00;3.13;;;;;;;;;;5053172;28;20048;-71
2022/03/17 10:15:40;;;;;;;5.75;3.55;;;;;;;;;;5053075;28;20045;-72
2022/03/17 10:18:37;;;;;;;4.72;3.58;;;;;;;;;;5052959;28;20045;-72
2022/03/17 10:21:13;;;;;;;7.18;3.47;;;;;;;;;;5026639;28;20072;-72
2022/03/17 10:24:09;;;;;;;8.63;4.07;;;;;;;;;;5052787;28;20091;-72
2022/03/17 10:26:38;;;;;;;7.82;3.28;;;;;;;;;;5053374;28;20542;-73
2022/03/17 10:29:17;;;;;;;4.38;3.00;;;;;;;;;;5053078;28;20116;-73
2022/03/17 10:31:51;;;;;;;10.15;3.70;;;;;;;;;;5054378;28;20111;-72
2022/03/17 10:34:28;;;;;;;7.90;4.10;;;;;;;;;;5057340;28;20041;-72
2022/03/17 10:37:18;;;;;;;5.53;3.08;;;;;;;;;;5057212;28;20432;-73
2022/03/17 10:40:05;;;;;;;7.53;3.80;;;;;;;;;;5057037;28;20072;-72
2022/03/17 10:42:32;;;;;;;8.70;5.38;;;;;;;;;;5056528;28;20102;-72
2022/03/17 10:45:19;;;;;;;8.00;5.15;;;;;;;;;;5057713;28;20059;-72
2022/03/17 10:47:49;;;;;;;5.97;3.10;;;;;;;;;;5056820;28;20036;-73
2022/03/17 10:50:28;;;;;;;5.63;3.08;;;;;;;;;;5056888;28;20475;-73
2022/03/17 10:53:00;;;;;;;7.55;4.63;;;;;;;;;;5057357;28;20048;-73
2022/03/17 10:55:53;;;;;;;8.27;4.88;;;;;;;;;;5056334;28;20456;-72
2022/03/17 10:58:24;;;;;;;12.10;6.32;;;;;;;;;;5056614;28;20111;-72
2022/03/17 11:00:56;;;;;;;8.77;4.80;;;;;;;;;;5056618;28;20083;-72
2022/03/17 11:03:25;;;;;;;7.75;4.90;;;;;;;;;;5056847;28;20045;-73
2022/03/17 11:05:53;;;;;;;7.85;4.85;;;;;;;;;;5056712;28;20060;-72
2022/03/17 11:08:26;;;;;;;7.30;3.75;;;;;;;;;;5057002;28;20112;-73
2022/03/17 11:10:57;;;;;;;7.43;4.47;;;;;;;;;;5056497;28;20094;-73
2022/03/17 11:13:26;;;;;;;6.05;4.13;;;;;;;;;;5056143;28;20044;-72
2022/03/17 11:16:12;;;;;;;6.07;3.80;;;;;;;;;;5056579;28;20041;-73
2022/03/17 11:18:40;;;;;;;10.10;5.60;;;;;;;;;;5056608;28;20117;-72
2022/03/17 11:21:14;;;;;;;8.50;4.63;;;;;;;;;;5056740;28;20406;-72
2022/03/17 11:23:55;;;;;;;5.40;3.00;;;;;;;;;;5056461;28;20049;-72
2022/03/17 11:26:41;;;;;;;6.75;4.10;;;;;;;;;;5055682;28;20068;-73
2022/03/17 11:29:09;;;;;;;6.20;3.45;;;;;;;;;;5056371;28;20092;-72
2022/03/17 11:31:56;;;;;;;7.35;3.70;;;;;;;;;;5056005;28;20041;-72
2022/03/17 11:34:41;;;;;;;5.50;3.40;;;;;;;;;;5054627;28;20069;-72
2022/03/17 11:37:24;;;;;;;7.65;3.70;;;;;;;;;;5056182;28;20132;-72
2022/03/17 11:40:16;;;;;;;9.10;4.97;;;;;;;;;;5055709;28;20124;-72
2022/03/17 11:42:47;;;;;;;5.35;3.22;;;;;;;;;;5055544;28;20068;-72
2022/03/17 11:45:15;;;;;;;7.70;3.70;;;;;;;;;;5056224;28;20499;-72
2022/03/17 11:47:58;;;;;;;8.75;3.90;;;;;;;;;;5055966;28;20047;-72
2022/03/17 11:50:38;;;;;;;8.00;4.15;;;;;;;;;;5055841;28;20033;-72
2022/03/17 11:53:19;;;;;;;9.43;4.57;;;;;;;;;;5055615;28;20091;-72
2022/03/17 11:55:55;;;;;;;9.10;4.82;;;;;;;;;;5055799;28;20053;-72
2022/03/17 11:58:43;;;;;;;13.05;5.75;;;;;;;;;;5047469;28;20128;-72
2022/03/17 12:01:34;;;;;;;13.90;6.70;;;;;;;;;;5055442;28;20040;-72
2022/03/17 12:04:06;;;;;;;16.10;7.47;;;;;;;;;;5055535;28;20045;-72
2022/03/17 12:06:38;;;;;;;15.50;7.03;;;;;;;;;;5055468;28;20479;-72
2022/03/17 12:13:21;;;;;;;7.25;3.92;;;;;;;;;;5054673;28;20095;-73
2022/03/17 12:19:54;;;;;;;7.38;4.18;;;;;;;;;;5054775;28;20502;-72
2022/03/17 12:26:01;;;;;;;9.10;6.13;;;;;;;;;;5055482;28;20103;-72
2022/03/17 12:28:53;;;;;;;9.00;5.07;;;;;;;;;;5052940;28;20503;-72
2022/03/17 12:31:24;;;;;;;10.05;6.45;;;;;;;;;;5055040;28;20074;-72
2022/03/17 12:33:56;;;;;;;12.77;8.30;;;;;;;;;;5054992;28;20041;-72
2022/03/17 12:36:24;;;;;;;23.40;15.15;;;;;;;;;;5055008;28;20048;-72
2022/03/17 12:38:55;;;;;;;12.75;7.25;;;;;;;;;;5054586;28;20507;-72
2022/03/17 12:48:55;;;;;;;8.32;5.03;;;;;;;;;;5054459;28;20040;-70
2022/03/17 12:51:27;;;;;;;9.48;4.20;;;;;;;;;;5054743;28;20130;-69
2022/03/17 12:54:03;;;;;;;6.80;4.10;;;;;;;;;;5053574;28;20037;-69
2022/03/17 12:56:56;;;;;;;6.88;4.07;;;;;;;;;;5055189;28;20460;-69
2022/03/17 12:59:26;;;;;;;6.25;3.95;;;;;;;;;;5054628;28;20099;-70
2022/03/17 13:01:57;;;;;;;8.95;5.30;;;;;;;;;;5054466;28;20045;-69
2022/03/17 13:04:29;;;;;;;8.32;6.10;;;;;;;;;;5054353;28;20116;-69
2022/03/17 13:06:57;;;;;;;7.53;4.80;;;;;;;;;;5054343;28;20112;-69
2022/03/17 13:09:32;;;;;;;10.25;6.18;;;;;;;;;;5053854;28;20037;-69
2022/03/17 13:15:11;;;;;;;9.35;4.80;;;;;;;;;;5054453;28;20375;-69
2022/03/17 13:17:40;;;;;;;7.82;3.90;;;;;;;;;;5054155;28;20033;-69
2022/03/17 13:20:20;;;;;;;7.68;4.35;;;;;;;;;;5053824;28;20133;-69
2022/03/17 13:23:11;;;;;;;7.40;4.10;;;;;;;;;;5053447;28;20102;-69
2022/03/17 13:26:08;;;;;;;7.47;4.90;;;;;;;;;;5054336;28;20041;-69
2022/03/17 13:28:36;;;;;;;8.40;4.43;;;;;;;;;;5053478;28;20045;-69
2022/03/17 13:38:35;;;;;;;6.63;4.15;;;;;;;;;;5052420;28;20052;-70
2022/03/17 13:41:02;;;;;;;7.28;3.95;;;;;;;;;;5048758;28;20415;-69
2022/03/17 13:47:09;;;;;;;6.85;3.28;;;;;;;;;;5045597;28;20471;-71
2022/03/17 13:49:37;;;;;;;8.75;5.00;;;;;;;;;;5032873;28;20450;-70
2022/03/17 13:52:12;;;;;;;8.23;3.88;;;;;;;;;;5044191;28;20510;-70
2022/03/17 13:54:42;;;;;;;8.25;3.72;;;;;;;;;;5033731;28;20050;-69
2022/03/17 13:57:18;;;;;;;9.07;4.00;;;;;;;;;;5033426;28;20442;-69
2022/03/17 13:59:47;;;;;;;8.25;5.00;;;;;;;;;;5063416;28;20502;-69
2022/03/17 14:02:17;;;;;;;11.73;5.38;;;;;;;;;;5053312;28;20048;-69
2022/03/17 14:04:54;;;;;;;8.65;4.45;;;;;;;;;;5053236;28;20033;-69
2022/03/17 14:07:23;;;;;;;6.40;4.25;;;;;;;;;;5052985;28;20368;-68
2022/03/17 14:09:51;;;;;;;8.85;4.40;;;;;;;;;;5038194;28;20041;-69
2022/03/17 14:12:19;;;;;;;9.88;4.63;;;;;;;;;;5033297;28;20045;-68
2022/03/17 14:14:47;;;;;;;7.35;4.18;;;;;;;;;;5033113;28;20041;-69
2022/03/17 14:17:15;;;;;;;7.50;4.22;;;;;;;;;;5033558;28;20068;-70
2022/03/17 14:19:44;;;;;;;8.00;4.90;;;;;;;;;;5033150;28;20068;-70
2022/03/17 14:24:57;;;;;;;9.20;4.30;;;;;;;;;;5032964;28;20041;-70
2022/03/17 14:27:26;;;;;;;7.35;4.70;;;;;;;;;;5035275;28;20064;-70
2022/03/17 14:29:55;;;;;;;7.75;5.05;;;;;;;;;;5033135;28;20045;-70
2022/03/17 14:32:24;;;;;;;9.70;4.82;;;;;;;;;;5032813;28;20040;-69
2022/03/17 14:34:52;;;;;;;9.30;5.10;;;;;;;;;;5033390;28;20049;-69
2022/03/17 14:37:26;;;;;;;6.53;4.53;;;;;;;;;;5033235;28;20042;-69
2022/03/17 14:39:53;;;;;;;7.95;4.15;;;;;;;;;;5050690;28;20044;-69
2022/03/17 14:42:50;;;;;;;8.25;5.15;;;;;;;;;;5052832;28;20407;-69
2022/03/17 14:52:01;;;;;;;18.25;7.70;;;;;;;;;;5050957;28;20080;-71
2022/03/17 14:54:57;;;;;;;16.83;8.23;;;;;;;;;;5050602;28;20049;-70
2022/03/17 14:57:24;;;;;;;26.75;14.30;;;;;;;;;;5052376;28;20099;-70
2022/03/17 14:59:56;;;;;;;17.05;9.15;;;;;;;;;;5052628;28;20041;-70
2022/03/17 15:02:24;;;;;;;9.98;6.25;;;;;;;;;;5052543;28;20079;-70
2022/03/17 15:04:52;;;;;;;9.57;5.43;;;;;;;;;;5052093;28;20049;-70
2022/03/17 15:07:22;;;;;;;9.10;4.53;;;;;;;;;;5052836;28;20076;-71
2022/03/17 15:09:49;;;;;;;8.68;4.43;;;;;;;;;;5052713;28;20089;-70
2022/03/17 15:12:18;;;;;;;14.60;8.27;;;;;;;;;;5052140;28;20033;-70
2022/03/17 15:14:48;;;;;;;18.92;10.18;;;;;;;;;;5052426;28;20071;-70
2022/03/17 15:17:16;;;;;;;10.85;6.50;;;;;;;;;;5053371;28;20048;-71
2022/03/17 15:19:44;;;;;;;9.07;4.95;;;;;;;;;;5055913;28;20480;-70
2022/03/17 15:22:14;;;;;;;13.23;7.07;;;;;;;;;;5056315;28;20492;-71
2022/03/17 15:24:43;;;;;;;12.13;5.70;;;;;;;;;;5056530;28;20116;-70
2022/03/17 15:30:14;;;;;;;15.82;6.60;;;;;;;;;;5115388;22;20116;-74
2022/03/17 15:33:10;;;;;;;18.13;7.35;;;;;;;;;;5016087;28;20038;-73
2022/03/17 15:35:40;;;;;;;11.70;5.20;;;;;;;;;;5015258;28;20534;-73
2022/03/17 15:38:08;;;;;;;24.38;8.90;;;;;;;;;;5016282;28;20038;-72
2022/03/17 15:40:37;;;;;;;21.17;8.85;;;;;;;;;;5016257;28;20038;-73
2022/03/17 15:43:06;;;;;;;15.82;6.53;;;;;;;;;;5015835;28;20042;-73
2022/03/17 15:45:33;;;;;;;9.13;5.18;;;;;;;;;;5015395;28;20480;-74
2022/03/17 15:48:04;;;;;;;14.68;7.32;;;;;;;;;;5016509;28;20096;-73
2022/03/17 15:50:31;;;;;;;27.13;13.52;;;;;;;;;;5016239;28;20038;-73
2022/03/17 15:52:59;;;;;;;14.10;8.73;;;;;;;;;;5015778;28;20053;-73
2022/03/17 15:55:28;;;;;;;14.88;9.25;;;;;;;;;;5015237;28;20060;-73
2022/03/17 15:57:56;;;;;;;8.93;5.55;;;;;;;;;;5015844;28;20049;-73
2022/03/17 16:00:30;;;;;;;10.30;5.45;;;;;;;;;;5015507;28;20213;-73
2022/03/17 16:03:03;;;;;;;9.13;5.20;;;;;;;;;;5015831;28;20046;-73
2022/03/17 16:05:33;;;;;;;8.65;5.38;;;;;;;;;;5014558;28;20042;-73
2022/03/17 16:08:02;;;;;;;9.82;5.28;;;;;;;;;;5015713;28;20046;-73
2022/03/17 16:16:03;;;;;;;9.02;5.00;;;;;;;;;;5015199;28;20461;-74
2022/03/17 16:18:32;;;;;;;8.88;5.30;;;;;;;;;;5015452;28;20046;-74
2022/03/17 16:21:01;;;;;;;8.45;5.13;;;;;;;;;;5015022;28;20496;-74
2022/03/17 16:23:29;;;;;;;8.52;4.82;;;;;;;;;;5015431;28;20052;-74
2022/03/17 16:25:57;;;;;;;11.90;6.45;;;;;;;;;;5015602;28;20080;-73
2022/03/17 16:28:28;;;;;;;13.55;7.75;;;;;;;;;;5015067;28;20041;-74
2022/03/17 16:30:56;;;;;;;13.98;9.15;;;;;;;;;;5020638;28;20120;-73
2022/03/17 16:33:24;;;;;;;12.43;8.30;;;;;;;;;;5034938;28;20037;-73
2022/03/17 16:35:54;;;;;;;14.82;8.10;;;;;;;;;;5034794;28;20037;-73
2022/03/17 16:38:21;;;;;;;10.23;6.80;;;;;;;;;;5034869;28;20391;-73